sensor_id;sensor_type;location;lat;lon;timestamp;temperature;humidity
13223;DHT22;6676;45.192;5.722;2023-09-07T00:00:48;22.80;99.90
13223;DHT22;6676;45.192;5.722;2023-09-07T00:03:39;22.80;99.90
13223;DHT22;6676;45.192;5.722;2023-09-07T00:06:32;22.80;99.90
13223;DHT22;6676;45.192;5.722;2023-09-07T00:09:24;22.80;99.90
13223;DHT22;6676;45.192;5.722;2023-09-07T00:12:17;22.80;99.90
13223;DHT22;6676;45.192;5.722;2023-09-07T00:15:10;22.80;99.90
13223;DHT22;6676;45.192;5.722;2023-09-07T00:18:02;22.80;99.90
13223;DHT22;6676;45.192;5.722;2023-09-07T00:20:53;22.90;99.90
13223;DHT22;6676;45.192;5.722;2023-09-07T00:23:48;22.90;99.90
13223;DHT22;6676;45.192;5.722;2023-09-07T00:26:39;22.80;99.90
13223;DHT22;6676;45.192;5.722;2023-09-07T00:29:30;22.80;99.90
13223;DHT22;6676;45.192;5.722;2023-09-07T00:32:22;22.70;99.90
13223;DHT22;6676;45.192;5.722;2023-09-07T00:35:13;22.70;99.90
13223;DHT22;6676;45.192;5.722;2023-09-07T00:38:05;22.60;99.90
13223;DHT22;6676;45.192;5.722;2023-09-07T00:40:56;22.60;99.90
13223;DHT22;6676;45.192;5.722;2023-09-07T00:43:47;22.60;99.90
13223;DHT22;6676;45.192;5.722;2023-09-07T00:46:39;22.50;99.90
13223;DHT22;6676;45.192;5.722;2023-09-07T00:49:30;22.50;99.90
13223;DHT22;6676;45.192;5.722;2023-09-07T00:52:22;22.50;99.90
13223;DHT22;6676;45.192;5.722;2023-09-07T00:55:14;22.50;99.90
13223;DHT22;6676;45.192;5.722;2023-09-07T00:58:06;22.50;99.90
13223;DHT22;6676;45.192;5.722;2023-09-07T01:00:58;22.50;99.90
13223;DHT22;6676;45.192;5.722;2023-09-07T01:03:51;22.40;99.90
13223;DHT22;6676;45.192;5.722;2023-09-07T01:09:26;22.50;99.90
13223;DHT22;6676;45.192;5.722;2023-09-07T01:12:19;22.40;99.90
13223;DHT22;6676;45.192;5.722;2023-09-07T01:15:11;22.40;99.90
13223;DHT22;6676;45.192;5.722;2023-09-07T01:18:03;22.40;99.90
13223;DHT22;6676;45.192;5.722;2023-09-07T01:20:57;22.40;99.90
13223;DHT22;6676;45.192;5.722;2023-09-07T01:23:49;22.40;99.90
13223;DHT22;6676;45.192;5.722;2023-09-07T01:26:42;22.40;99.90
13223;DHT22;6676;45.192;5.722;2023-09-07T01:29:34;22.30;99.90
13223;DHT22;6676;45.192;5.722;2023-09-07T01:32:27;22.30;99.90
13223;DHT22;6676;45.192;5.722;2023-09-07T01:35:19;22.20;99.90
13223;DHT22;6676;45.192;5.722;2023-09-07T01:38:11;22.20;99.90
13223;DHT22;6676;45.192;5.722;2023-09-07T01:41:03;22.10;99.90
13223;DHT22;6676;45.192;5.722;2023-09-07T01:43:54;22.20;99.90
13223;DHT22;6676;45.192;5.722;2023-09-07T01:46:46;22.10;99.90
13223;DHT22;6676;45.192;5.722;2023-09-07T01:49:39;22.20;99.90
13223;DHT22;6676;45.192;5.722;2023-09-07T01:52:30;22.10;99.90
13223;DHT22;6676;45.192;5.722;2023-09-07T01:55:21;22.10;99.90
13223;DHT22;6676;45.192;5.722;2023-09-07T01:58:13;22.00;99.90
13223;DHT22;6676;45.192;5.722;2023-09-07T02:01:04;22.10;99.90
13223;DHT22;6676;45.192;5.722;2023-09-07T02:03:55;22.10;99.90
13223;DHT22;6676;45.192;5.722;2023-09-07T02:06:47;22.20;99.90
13223;DHT22;6676;45.192;5.722;2023-09-07T02:09:38;22.30;99.90
13223;DHT22;6676;45.192;5.722;2023-09-07T02:12:30;22.40;99.90
13223;DHT22;6676;45.192;5.722;2023-09-07T02:15:21;22.40;99.90
13223;DHT22;6676;45.192;5.722;2023-09-07T02:18:13;22.20;99.90
13223;DHT22;6676;45.192;5.722;2023-09-07T02:21:05;22.10;99.90
13223;DHT22;6676;45.192;5.722;2023-09-07T02:23:57;22.10;99.90
13223;DHT22;6676;45.192;5.722;2023-09-07T02:26:48;22.00;99.90
13223;DHT22;6676;45.192;5.722;2023-09-07T02:29:40;22.00;99.90
13223;DHT22;6676;45.192;5.722;2023-09-07T02:32:32;22.00;99.90
13223;DHT22;6676;45.192;5.722;2023-09-07T02:35:24;22.10;99.90
13223;DHT22;6676;45.192;5.722;2023-09-07T02:38:16;22.10;99.90
13223;DHT22;6676;45.192;5.722;2023-09-07T02:41:07;22.10;99.90
13223;DHT22;6676;45.192;5.722;2023-09-07T02:43:59;22.00;99.90
13223;DHT22;6676;45.192;5.722;2023-09-07T02:46:51;22.00;99.90
13223;DHT22;6676;45.192;5.722;2023-09-07T02:49:42;22.00;99.90
13223;DHT22;6676;45.192;5.722;2023-09-07T02:52:34;22.00;99.90
13223;DHT22;6676;45.192;5.722;2023-09-07T02:55:27;21.90;99.90
13223;DHT22;6676;45.192;5.722;2023-09-07T02:58:19;22.00;99.90
13223;DHT22;6676;45.192;5.722;2023-09-07T03:01:12;22.00;99.90
13223;DHT22;6676;45.192;5.722;2023-09-07T03:04:05;22.00;99.90
13223;DHT22;6676;45.192;5.722;2023-09-07T03:06:58;22.00;99.90
13223;DHT22;6676;45.192;5.722;2023-09-07T03:09:53;22.00;99.90
13223;DHT22;6676;45.192;5.722;2023-09-07T03:12:44;21.90;99.90
13223;DHT22;6676;45.192;5.722;2023-09-07T03:15:36;22.00;99.90
13223;DHT22;6676;45.192;5.722;2023-09-07T03:18:29;22.00;99.90
13223;DHT22;6676;45.192;5.722;2023-09-07T03:21:22;21.80;99.90
13223;DHT22;6676;45.192;5.722;2023-09-07T03:24:17;21.80;99.90
13223;DHT22;6676;45.192;5.722;2023-09-07T03:27:08;21.80;99.90
13223;DHT22;6676;45.192;5.722;2023-09-07T03:30:01;21.80;99.90
13223;DHT22;6676;45.192;5.722;2023-09-07T03:32:54;21.80;99.90
13223;DHT22;6676;45.192;5.722;2023-09-07T03:35:45;21.70;99.90
13223;DHT22;6676;45.192;5.722;2023-09-07T03:38:37;21.70;99.90
13223;DHT22;6676;45.192;5.722;2023-09-07T03:41:28;21.60;99.90
13223;DHT22;6676;45.192;5.722;2023-09-07T03:44:20;21.50;99.90
13223;DHT22;6676;45.192;5.722;2023-09-07T03:47:13;21.60;99.90
13223;DHT22;6676;45.192;5.722;2023-09-07T03:50:06;21.60;99.90
13223;DHT22;6676;45.192;5.722;2023-09-07T03:52:58;21.50;99.90
13223;DHT22;6676;45.192;5.722;2023-09-07T03:55:49;21.40;99.90
13223;DHT22;6676;45.192;5.722;2023-09-07T03:58:42;21.40;99.90
13223;DHT22;6676;45.192;5.722;2023-09-07T04:01:34;21.30;99.90
13223;DHT22;6676;45.192;5.722;2023-09-07T04:04:25;21.30;99.90
13223;DHT22;6676;45.192;5.722;2023-09-07T04:07:17;21.20;99.90
13223;DHT22;6676;45.192;5.722;2023-09-07T04:10:10;21.20;99.90
13223;DHT22;6676;45.192;5.722;2023-09-07T04:13:01;21.10;99.90
13223;DHT22;6676;45.192;5.722;2023-09-07T04:15:52;21.10;99.90
13223;DHT22;6676;45.192;5.722;2023-09-07T04:18:44;21.10;99.90
13223;DHT22;6676;45.192;5.722;2023-09-07T04:21:36;21.10;99.90
13223;DHT22;6676;45.192;5.722;2023-09-07T04:24:28;21.00;99.90
13223;DHT22;6676;45.192;5.722;2023-09-07T04:27:20;20.90;99.90
13223;DHT22;6676;45.192;5.722;2023-09-07T04:30:13;20.90;99.90
13223;DHT22;6676;45.192;5.722;2023-09-07T04:33:05;20.90;99.90
13223;DHT22;6676;45.192;5.722;2023-09-07T04:36:05;20.80;99.90
13223;DHT22;6676;45.192;5.722;2023-09-07T04:38:51;20.80;99.90
13223;DHT22;6676;45.192;5.722;2023-09-07T04:41:43;20.70;99.90
13223;DHT22;6676;45.192;5.722;2023-09-07T04:44:34;20.70;99.90
13223;DHT22;6676;45.192;5.722;2023-09-07T04:47:26;20.60;99.90
13223;DHT22;6676;45.192;5.722;2023-09-07T04:50:18;20.50;99.90
13223;DHT22;6676;45.192;5.722;2023-09-07T04:53:09;20.50;99.90
13223;DHT22;6676;45.192;5.722;2023-09-07T04:56:02;20.40;99.90
13223;DHT22;6676;45.192;5.722;2023-09-07T04:58:53;20.40;99.90
13223;DHT22;6676;45.192;5.722;2023-09-07T05:01:46;20.40;99.90
13223;DHT22;6676;45.192;5.722;2023-09-07T05:04:37;20.40;99.90
13223;DHT22;6676;45.192;5.722;2023-09-07T05:07:29;20.30;99.90
13223;DHT22;6676;45.192;5.722;2023-09-07T05:10:20;20.20;99.90
13223;DHT22;6676;45.192;5.722;2023-09-07T05:13:12;20.10;99.90
13223;DHT22;6676;45.192;5.722;2023-09-07T05:16:04;20.10;99.90
13223;DHT22;6676;45.192;5.722;2023-09-07T05:18:57;20.00;99.90
13223;DHT22;6676;45.192;5.722;2023-09-07T05:21:48;20.00;99.90
13223;DHT22;6676;45.192;5.722;2023-09-07T05:24:40;20.00;99.90
13223;DHT22;6676;45.192;5.722;2023-09-07T05:27:35;20.00;99.90
13223;DHT22;6676;45.192;5.722;2023-09-07T05:30:30;19.90;99.90
13223;DHT22;6676;45.192;5.722;2023-09-07T05:33:22;19.90;99.90
13223;DHT22;6676;45.192;5.722;2023-09-07T05:36:14;19.90;99.90
13223;DHT22;6676;45.192;5.722;2023-09-07T05:39:05;20.00;99.90
13223;DHT22;6676;45.192;5.722;2023-09-07T05:41:57;20.10;99.90
13223;DHT22;6676;45.192;5.722;2023-09-07T05:44:48;20.10;99.90
13223;DHT22;6676;45.192;5.722;2023-09-07T05:47:41;20.20;99.90
13223;DHT22;6676;45.192;5.722;2023-09-07T05:50:35;20.10;99.90
13223;DHT22;6676;45.192;5.722;2023-09-07T05:53:26;20.20;99.90
13223;DHT22;6676;45.192;5.722;2023-09-07T05:56:18;20.20;99.90
13223;DHT22;6676;45.192;5.722;2023-09-07T05:59:13;20.10;99.90
13223;DHT22;6676;45.192;5.722;2023-09-07T06:02:05;20.00;99.90
13223;DHT22;6676;45.192;5.722;2023-09-07T06:04:56;20.00;99.90
13223;DHT22;6676;45.192;5.722;2023-09-07T06:07:48;20.10;99.90
13223;DHT22;6676;45.192;5.722;2023-09-07T06:10:42;20.20;99.90
13223;DHT22;6676;45.192;5.722;2023-09-07T06:13:33;20.20;99.90
13223;DHT22;6676;45.192;5.722;2023-09-07T06:16:25;20.20;99.90
13223;DHT22;6676;45.192;5.722;2023-09-07T06:19:17;20.30;99.90
13223;DHT22;6676;45.192;5.722;2023-09-07T06:22:08;20.30;99.90
13223;DHT22;6676;45.192;5.722;2023-09-07T06:25:00;20.30;99.90
13223;DHT22;6676;45.192;5.722;2023-09-07T06:27:52;20.40;99.90
13223;DHT22;6676;45.192;5.722;2023-09-07T06:30:45;20.40;99.90
13223;DHT22;6676;45.192;5.722;2023-09-07T06:33:37;20.60;99.90
13223;DHT22;6676;45.192;5.722;2023-09-07T06:36:29;20.60;99.90
13223;DHT22;6676;45.192;5.722;2023-09-07T06:39:22;20.70;99.90
13223;DHT22;6676;45.192;5.722;2023-09-07T06:42:14;20.90;99.90
13223;DHT22;6676;45.192;5.722;2023-09-07T06:45:09;21.00;99.90
13223;DHT22;6676;45.192;5.722;2023-09-07T06:48:01;21.10;99.90
13223;DHT22;6676;45.192;5.722;2023-09-07T06:50:52;21.20;99.90
13223;DHT22;6676;45.192;5.722;2023-09-07T06:53:45;21.30;99.90
13223;DHT22;6676;45.192;5.722;2023-09-07T06:56:39;21.40;99.90
13223;DHT22;6676;45.192;5.722;2023-09-07T06:59:30;21.50;99.90
13223;DHT22;6676;45.192;5.722;2023-09-07T07:02:22;21.60;99.90
13223;DHT22;6676;45.192;5.722;2023-09-07T07:05:13;21.60;99.90
13223;DHT22;6676;45.192;5.722;2023-09-07T07:08:06;21.70;99.90
13223;DHT22;6676;45.192;5.722;2023-09-07T07:10:58;21.80;99.90
13223;DHT22;6676;45.192;5.722;2023-09-07T07:13:49;21.90;99.90
13223;DHT22;6676;45.192;5.722;2023-09-07T07:16:41;22.00;99.90
13223;DHT22;6676;45.192;5.722;2023-09-07T07:19:33;21.90;99.90
13223;DHT22;6676;45.192;5.722;2023-09-07T07:22:26;21.90;99.90
13223;DHT22;6676;45.192;5.722;2023-09-07T07:25:18;21.90;99.90
13223;DHT22;6676;45.192;5.722;2023-09-07T07:28:18;21.90;99.90
13223;DHT22;6676;45.192;5.722;2023-09-07T07:31:41;21.90;99.90
13223;DHT22;6676;45.192;5.722;2023-09-07T07:38:38;22.00;99.90
13223;DHT22;6676;45.192;5.722;2023-09-07T07:41:35;22.00;99.90
13223;DHT22;6676;45.192;5.722;2023-09-07T07:44:38;22.10;99.90
13223;DHT22;6676;45.192;5.722;2023-09-07T07:47:39;22.10;99.90
13223;DHT22;6676;45.192;5.722;2023-09-07T07:50:38;22.10;99.90
13223;DHT22;6676;45.192;5.722;2023-09-07T07:53:39;22.20;99.90
13223;DHT22;6676;45.192;5.722;2023-09-07T07:56:56;22.20;99.90
13223;DHT22;6676;45.192;5.722;2023-09-07T07:59:53;22.20;99.90
13223;DHT22;6676;45.192;5.722;2023-09-07T08:02:55;22.10;99.90
13223;DHT22;6676;45.192;5.722;2023-09-07T08:05:48;22.10;99.90
13223;DHT22;6676;45.192;5.722;2023-09-07T08:08:50;22.10;99.90
13223;DHT22;6676;45.192;5.722;2023-09-07T08:11:48;22.20;99.90
13223;DHT22;6676;45.192;5.722;2023-09-07T08:14:41;22.30;99.90
13223;DHT22;6676;45.192;5.722;2023-09-07T08:17:37;22.30;99.90
13223;DHT22;6676;45.192;5.722;2023-09-07T08:23:46;22.40;99.90
13223;DHT22;6676;45.192;5.722;2023-09-07T08:26:40;22.60;99.90
13223;DHT22;6676;45.192;5.722;2023-09-07T08:29:32;22.60;99.90
13223;DHT22;6676;45.192;5.722;2023-09-07T08:32:31;22.70;99.90
13223;DHT22;6676;45.192;5.722;2023-09-07T08:35:23;22.80;99.90
13223;DHT22;6676;45.192;5.722;2023-09-07T08:38:27;22.80;99.90
13223;DHT22;6676;45.192;5.722;2023-09-07T08:41:30;22.90;99.90
13223;DHT22;6676;45.192;5.722;2023-09-07T08:44:50;23.00;99.90
13223;DHT22;6676;45.192;5.722;2023-09-07T08:47:50;23.10;99.90
13223;DHT22;6676;45.192;5.722;2023-09-07T08:50:48;23.10;99.90
13223;DHT22;6676;45.192;5.722;2023-09-07T08:53:45;23.30;99.90
13223;DHT22;6676;45.192;5.722;2023-09-07T08:56:40;23.40;99.90
13223;DHT22;6676;45.192;5.722;2023-09-07T08:59:33;23.50;99.90
13223;DHT22;6676;45.192;5.722;2023-09-07T09:02:25;23.60;99.90
13223;DHT22;6676;45.192;5.722;2023-09-07T09:05:19;23.60;99.90
13223;DHT22;6676;45.192;5.722;2023-09-07T09:08:12;23.60;99.90
13223;DHT22;6676;45.192;5.722;2023-09-07T09:11:04;23.70;99.90
13223;DHT22;6676;45.192;5.722;2023-09-07T09:13:55;23.80;99.90
13223;DHT22;6676;45.192;5.722;2023-09-07T09:16:50;23.90;99.90
13223;DHT22;6676;45.192;5.722;2023-09-07T09:19:41;23.90;99.90
13223;DHT22;6676;45.192;5.722;2023-09-07T09:22:33;24.00;99.90
13223;DHT22;6676;45.192;5.722;2023-09-07T09:25:24;24.00;99.90
13223;DHT22;6676;45.192;5.722;2023-09-07T09:28:16;24.00;99.90
13223;DHT22;6676;45.192;5.722;2023-09-07T09:31:07;24.10;99.90
13223;DHT22;6676;45.192;5.722;2023-09-07T09:34:01;24.10;99.90
13223;DHT22;6676;45.192;5.722;2023-09-07T09:36:53;24.20;99.90
13223;DHT22;6676;45.192;5.722;2023-09-07T09:39:44;24.30;99.90
13223;DHT22;6676;45.192;5.722;2023-09-07T09:42:37;24.40;99.90
13223;DHT22;6676;45.192;5.722;2023-09-07T09:45:29;24.50;99.90
13223;DHT22;6676;45.192;5.722;2023-09-07T09:48:21;24.50;99.90
13223;DHT22;6676;45.192;5.722;2023-09-07T09:51:15;24.50;99.90
13223;DHT22;6676;45.192;5.722;2023-09-07T09:54:09;24.60;99.90
13223;DHT22;6676;45.192;5.722;2023-09-07T10:00:17;24.80;99.90
13223;DHT22;6676;45.192;5.722;2023-09-07T10:03:13;24.90;99.90
13223;DHT22;6676;45.192;5.722;2023-09-07T10:06:09;25.00;99.90
13223;DHT22;6676;45.192;5.722;2023-09-07T10:09:03;25.00;99.90
13223;DHT22;6676;45.192;5.722;2023-09-07T10:11:58;25.10;99.90
13223;DHT22;6676;45.192;5.722;2023-09-07T10:18:06;25.30;99.90
13223;DHT22;6676;45.192;5.722;2023-09-07T10:20:59;25.40;99.90
13223;DHT22;6676;45.192;5.722;2023-09-07T10:23:53;25.50;99.90
13223;DHT22;6676;45.192;5.722;2023-09-07T10:26:45;25.70;99.90
13223;DHT22;6676;45.192;5.722;2023-09-07T10:29:44;25.80;99.90
13223;DHT22;6676;45.192;5.722;2023-09-07T10:32:39;25.80;99.90
13223;DHT22;6676;45.192;5.722;2023-09-07T10:35:34;25.70;99.90
13223;DHT22;6676;45.192;5.722;2023-09-07T10:38:28;25.80;99.90
13223;DHT22;6676;45.192;5.722;2023-09-07T10:41:19;25.90;99.90
13223;DHT22;6676;45.192;5.722;2023-09-07T10:44:11;26.00;99.90
13223;DHT22;6676;45.192;5.722;2023-09-07T10:47:05;26.20;99.90
13223;DHT22;6676;45.192;5.722;2023-09-07T10:49:58;26.20;99.90
13223;DHT22;6676;45.192;5.722;2023-09-07T10:52:49;26.20;99.90
13223;DHT22;6676;45.192;5.722;2023-09-07T10:55:41;26.40;99.90
13223;DHT22;6676;45.192;5.722;2023-09-07T10:58:35;26.50;99.90
13223;DHT22;6676;45.192;5.722;2023-09-07T11:01:28;26.60;99.90
13223;DHT22;6676;45.192;5.722;2023-09-07T11:04:22;26.50;99.90
13223;DHT22;6676;45.192;5.722;2023-09-07T11:07:14;26.60;99.90
13223;DHT22;6676;45.192;5.722;2023-09-07T11:10:10;26.70;99.90
13223;DHT22;6676;45.192;5.722;2023-09-07T11:13:06;26.90;99.90
13223;DHT22;6676;45.192;5.722;2023-09-07T11:15:59;27.00;99.90
13223;DHT22;6676;45.192;5.722;2023-09-07T11:18:51;27.10;99.90
13223;DHT22;6676;45.192;5.722;2023-09-07T11:21:43;27.20;99.90
13223;DHT22;6676;45.192;5.722;2023-09-07T11:24:36;27.40;99.90
13223;DHT22;6676;45.192;5.722;2023-09-07T11:27:30;27.50;99.90
13223;DHT22;6676;45.192;5.722;2023-09-07T11:30:22;27.50;99.90
13223;DHT22;6676;45.192;5.722;2023-09-07T11:33:15;27.60;99.90
13223;DHT22;6676;45.192;5.722;2023-09-07T11:36:07;27.80;99.90
13223;DHT22;6676;45.192;5.722;2023-09-07T11:38:58;27.90;99.90
13223;DHT22;6676;45.192;5.722;2023-09-07T11:41:50;28.00;99.90
13223;DHT22;6676;45.192;5.722;2023-09-07T11:44:41;28.10;99.90
13223;DHT22;6676;45.192;5.722;2023-09-07T11:47:33;28.20;99.90
13223;DHT22;6676;45.192;5.722;2023-09-07T11:50:25;28.30;99.90
13223;DHT22;6676;45.192;5.722;2023-09-07T11:53:18;28.30;99.90
13223;DHT22;6676;45.192;5.722;2023-09-07T11:56:10;28.50;99.90
13223;DHT22;6676;45.192;5.722;2023-09-07T11:59:01;28.50;99.90
13223;DHT22;6676;45.192;5.722;2023-09-07T12:01:53;28.60;99.90
13223;DHT22;6676;45.192;5.722;2023-09-07T12:04:44;28.60;99.90
13223;DHT22;6676;45.192;5.722;2023-09-07T12:07:36;28.70;99.90
13223;DHT22;6676;45.192;5.722;2023-09-07T12:10:27;28.80;99.90
13223;DHT22;6676;45.192;5.722;2023-09-07T12:13:22;28.80;99.90
13223;DHT22;6676;45.192;5.722;2023-09-07T12:16:15;28.70;99.90
13223;DHT22;6676;45.192;5.722;2023-09-07T12:19:06;28.70;99.90
13223;DHT22;6676;45.192;5.722;2023-09-07T12:21:57;28.90;99.90
13223;DHT22;6676;45.192;5.722;2023-09-07T12:24:49;29.00;99.90
13223;DHT22;6676;45.192;5.722;2023-09-07T12:27:44;29.10;99.90
13223;DHT22;6676;45.192;5.722;2023-09-07T12:30:38;29.20;99.90
13223;DHT22;6676;45.192;5.722;2023-09-07T12:33:30;29.10;99.90
13223;DHT22;6676;45.192;5.722;2023-09-07T12:36:23;29.10;99.90
13223;DHT22;6676;45.192;5.722;2023-09-07T12:39:16;29.30;99.90
13223;DHT22;6676;45.192;5.722;2023-09-07T12:42:08;29.20;99.90
13223;DHT22;6676;45.192;5.722;2023-09-07T12:44:59;29.30;99.90
13223;DHT22;6676;45.192;5.722;2023-09-07T12:47:51;29.40;99.90
13223;DHT22;6676;45.192;5.722;2023-09-07T12:50:42;29.50;99.90
13223;DHT22;6676;45.192;5.722;2023-09-07T12:53:34;29.60;99.90
13223;DHT22;6676;45.192;5.722;2023-09-07T12:56:25;29.60;99.30
13223;DHT22;6676;45.192;5.722;2023-09-07T12:59:17;29.60;99.40
13223;DHT22;6676;45.192;5.722;2023-09-07T13:02:09;29.60;98.90
13223;DHT22;6676;45.192;5.722;2023-09-07T13:05:00;29.60;97.90
13223;DHT22;6676;45.192;5.722;2023-09-07T13:07:53;29.60;97.30
13223;DHT22;6676;45.192;5.722;2023-09-07T13:10:46;29.70;97.70
13223;DHT22;6676;45.192;5.722;2023-09-07T13:13:37;29.70;97.70
13223;DHT22;6676;45.192;5.722;2023-09-07T13:16:32;29.80;98.30
13223;DHT22;6676;45.192;5.722;2023-09-07T13:19:24;30.00;96.60
13223;DHT22;6676;45.192;5.722;2023-09-07T13:22:16;30.00;96.20
13223;DHT22;6676;45.192;5.722;2023-09-07T13:25:09;30.00;95.10
13223;DHT22;6676;45.192;5.722;2023-09-07T13:28:00;30.10;95.10
13223;DHT22;6676;45.192;5.722;2023-09-07T13:30:52;30.20;94.90
13223;DHT22;6676;45.192;5.722;2023-09-07T13:33:46;30.20;95.20
13223;DHT22;6676;45.192;5.722;2023-09-07T13:36:37;30.30;95.00
13223;DHT22;6676;45.192;5.722;2023-09-07T13:39:28;30.20;94.60
13223;DHT22;6676;45.192;5.722;2023-09-07T13:42:19;30.20;94.70
13223;DHT22;6676;45.192;5.722;2023-09-07T13:45:11;30.30;94.90
13223;DHT22;6676;45.192;5.722;2023-09-07T13:48:03;30.30;94.00
13223;DHT22;6676;45.192;5.722;2023-09-07T13:50:55;30.40;94.00
13223;DHT22;6676;45.192;5.722;2023-09-07T13:53:47;30.40;93.80
13223;DHT22;6676;45.192;5.722;2023-09-07T13:56:40;30.40;94.10
13223;DHT22;6676;45.192;5.722;2023-09-07T13:59:33;30.40;93.80
13223;DHT22;6676;45.192;5.722;2023-09-07T14:02:26;30.50;93.10
13223;DHT22;6676;45.192;5.722;2023-09-07T14:05:17;30.60;93.30
13223;DHT22;6676;45.192;5.722;2023-09-07T14:08:08;30.70;92.70
13223;DHT22;6676;45.192;5.722;2023-09-07T14:11:00;31.30;92.20
13223;DHT22;6676;45.192;5.722;2023-09-07T14:13:51;31.90;90.20
13223;DHT22;6676;45.192;5.722;2023-09-07T14:16:45;32.40;90.10
13223;DHT22;6676;45.192;5.722;2023-09-07T14:19:36;32.90;89.50
13223;DHT22;6676;45.192;5.722;2023-09-07T14:22:28;33.10;86.70
13223;DHT22;6676;45.192;5.722;2023-09-07T14:25:19;33.00;84.30
13223;DHT22;6676;45.192;5.722;2023-09-07T14:28:12;33.30;83.20
13223;DHT22;6676;45.192;5.722;2023-09-07T14:31:05;33.50;82.40
13223;DHT22;6676;45.192;5.722;2023-09-07T14:33:57;33.50;80.70
13223;DHT22;6676;45.192;5.722;2023-09-07T14:36:49;33.60;80.10
13223;DHT22;6676;45.192;5.722;2023-09-07T14:39:40;33.70;79.90
13223;DHT22;6676;45.192;5.722;2023-09-07T14:42:34;34.20;77.30
13223;DHT22;6676;45.192;5.722;2023-09-07T14:45:25;34.50;77.00
13223;DHT22;6676;45.192;5.722;2023-09-07T14:48:25;34.50;75.40
13223;DHT22;6676;45.192;5.722;2023-09-07T14:51:18;34.50;75.90
13223;DHT22;6676;45.192;5.722;2023-09-07T14:54:09;34.60;74.40
13223;DHT22;6676;45.192;5.722;2023-09-07T14:57:04;34.80;73.10
13223;DHT22;6676;45.192;5.722;2023-09-07T14:59:56;34.80;73.20
13223;DHT22;6676;45.192;5.722;2023-09-07T15:02:47;34.80;71.90
13223;DHT22;6676;45.192;5.722;2023-09-07T15:05:38;35.00;71.30
13223;DHT22;6676;45.192;5.722;2023-09-07T15:08:31;35.10;70.70
13223;DHT22;6676;45.192;5.722;2023-09-07T15:11:23;35.00;70.50
13223;DHT22;6676;45.192;5.722;2023-09-07T15:14:14;35.00;71.40
13223;DHT22;6676;45.192;5.722;2023-09-07T15:17:06;35.20;70.30
13223;DHT22;6676;45.192;5.722;2023-09-07T15:19:57;35.40;70.30
13223;DHT22;6676;45.192;5.722;2023-09-07T15:22:49;35.40;69.40
13223;DHT22;6676;45.192;5.722;2023-09-07T15:25:41;35.10;68.90
13223;DHT22;6676;45.192;5.722;2023-09-07T15:28:32;35.50;67.90
13223;DHT22;6676;45.192;5.722;2023-09-07T15:31:24;35.50;68.20
13223;DHT22;6676;45.192;5.722;2023-09-07T15:34:16;35.40;68.20
13223;DHT22;6676;45.192;5.722;2023-09-07T15:37:08;35.30;68.50
13223;DHT22;6676;45.192;5.722;2023-09-07T15:39:59;35.30;68.40
13223;DHT22;6676;45.192;5.722;2023-09-07T15:42:51;35.10;68.50
13223;DHT22;6676;45.192;5.722;2023-09-07T15:45:44;34.70;69.90
13223;DHT22;6676;45.192;5.722;2023-09-07T15:48:35;34.60;70.00
13223;DHT22;6676;45.192;5.722;2023-09-07T15:51:27;35.10;69.70
13223;DHT22;6676;45.192;5.722;2023-09-07T15:54:18;35.50;68.40
13223;DHT22;6676;45.192;5.722;2023-09-07T15:57:11;36.10;67.40
13223;DHT22;6676;45.192;5.722;2023-09-07T16:00:12;35.90;66.70
13223;DHT22;6676;45.192;5.722;2023-09-07T16:03:04;36.00;67.10
13223;DHT22;6676;45.192;5.722;2023-09-07T16:05:55;35.80;65.20
13223;DHT22;6676;45.192;5.722;2023-09-07T16:08:47;35.70;66.50
13223;DHT22;6676;45.192;5.722;2023-09-07T16:11:38;35.70;65.80
13223;DHT22;6676;45.192;5.722;2023-09-07T16:14:29;35.60;66.10
13223;DHT22;6676;45.192;5.722;2023-09-07T16:17:21;35.40;65.50
13223;DHT22;6676;45.192;5.722;2023-09-07T16:20:13;35.20;65.80
13223;DHT22;6676;45.192;5.722;2023-09-07T16:23:04;35.20;65.90
13223;DHT22;6676;45.192;5.722;2023-09-07T16:25:56;35.00;65.70
13223;DHT22;6676;45.192;5.722;2023-09-07T16:28:48;35.00;66.00
13223;DHT22;6676;45.192;5.722;2023-09-07T16:31:39;34.80;66.20
13223;DHT22;6676;45.192;5.722;2023-09-07T16:34:31;34.90;66.60
13223;DHT22;6676;45.192;5.722;2023-09-07T16:37:22;34.80;67.40
13223;DHT22;6676;45.192;5.722;2023-09-07T16:40:16;34.60;68.10
13223;DHT22;6676;45.192;5.722;2023-09-07T16:43:07;34.20;69.40
13223;DHT22;6676;45.192;5.722;2023-09-07T16:45:59;34.20;69.40
13223;DHT22;6676;45.192;5.722;2023-09-07T16:48:51;33.70;70.40
13223;DHT22;6676;45.192;5.722;2023-09-07T16:51:43;33.30;72.10
13223;DHT22;6676;45.192;5.722;2023-09-07T16:54:35;33.10;73.60
13223;DHT22;6676;45.192;5.722;2023-09-07T16:57:28;32.80;73.90
13223;DHT22;6676;45.192;5.722;2023-09-07T17:00:20;32.40;75.10
13223;DHT22;6676;45.192;5.722;2023-09-07T17:03:12;32.40;75.40
13223;DHT22;6676;45.192;5.722;2023-09-07T17:06:03;32.10;75.80
13223;DHT22;6676;45.192;5.722;2023-09-07T17:08:55;31.70;76.20
13223;DHT22;6676;45.192;5.722;2023-09-07T17:11:46;31.30;77.90
13223;DHT22;6676;45.192;5.722;2023-09-07T17:14:38;31.00;78.20
13223;DHT22;6676;45.192;5.722;2023-09-07T17:17:31;30.70;79.00
13223;DHT22;6676;45.192;5.722;2023-09-07T17:20:23;30.30;80.10
13223;DHT22;6676;45.192;5.722;2023-09-07T17:23:14;30.10;81.00
13223;DHT22;6676;45.192;5.722;2023-09-07T17:26:06;29.80;82.20
13223;DHT22;6676;45.192;5.722;2023-09-07T17:28:57;29.70;82.80
13223;DHT22;6676;45.192;5.722;2023-09-07T17:31:48;29.50;83.40
13223;DHT22;6676;45.192;5.722;2023-09-07T17:34:40;29.40;84.10
13223;DHT22;6676;45.192;5.722;2023-09-07T17:37:31;29.30;84.80
13223;DHT22;6676;45.192;5.722;2023-09-07T17:40:23;29.20;85.40
13223;DHT22;6676;45.192;5.722;2023-09-07T17:43:15;29.00;85.80
13223;DHT22;6676;45.192;5.722;2023-09-07T17:46:06;29.00;86.20
13223;DHT22;6676;45.192;5.722;2023-09-07T17:48:57;28.90;87.50
13223;DHT22;6676;45.192;5.722;2023-09-07T17:51:52;28.70;88.90
13223;DHT22;6676;45.192;5.722;2023-09-07T17:54:43;28.70;89.20
13223;DHT22;6676;45.192;5.722;2023-09-07T17:57:35;28.60;89.30
13223;DHT22;6676;45.192;5.722;2023-09-07T18:00:26;28.60;89.50
13223;DHT22;6676;45.192;5.722;2023-09-07T18:03:18;28.50;90.10
13223;DHT22;6676;45.192;5.722;2023-09-07T18:06:09;28.50;90.40
13223;DHT22;6676;45.192;5.722;2023-09-07T18:09:01;28.50;90.50
13223;DHT22;6676;45.192;5.722;2023-09-07T18:11:52;28.40;90.80
13223;DHT22;6676;45.192;5.722;2023-09-07T18:14:44;28.20;91.10
13223;DHT22;6676;45.192;5.722;2023-09-07T18:17:37;28.20;91.50
13223;DHT22;6676;45.192;5.722;2023-09-07T18:20:30;28.20;91.60
13223;DHT22;6676;45.192;5.722;2023-09-07T18:23:21;28.10;92.00
13223;DHT22;6676;45.192;5.722;2023-09-07T18:26:14;28.00;92.20
13223;DHT22;6676;45.192;5.722;2023-09-07T18:29:06;27.90;92.70
13223;DHT22;6676;45.192;5.722;2023-09-07T18:31:57;28.00;92.80
13223;DHT22;6676;45.192;5.722;2023-09-07T18:34:48;27.90;93.20
13223;DHT22;6676;45.192;5.722;2023-09-07T18:37:40;27.80;93.30
13223;DHT22;6676;45.192;5.722;2023-09-07T18:40:31;27.60;94.50
13223;DHT22;6676;45.192;5.722;2023-09-07T18:43:22;27.40;94.80